In Rescue
 
Open Full Screen Window  High Contrast Mode
Wind Gusting 20 knots
10
January 20, 2021 4:57 PM CST
Weather Information
Wind Direction
  260 °
Wind Speed
  10 kt (12 mph)
Wind Gust
  20 kt (23 mph)
Variable Wind
220°
280°
Altimeter
29.35 in
Visibility
10 SM
Temperature
01° C
34° F
Dewpoint
-04° C
25° F
Humidity
70%
1hr Rain Fall
00.00 in.
24hr Rain Fall
00.00 in.
Sky Condition
Overcast @ 2,700 ft
MVFR

METAR KFOZ 202257Z AUTO 26010G20KT 223V283 10SM OVC027 01/M04 A2935 RMK AO2

FAA Disclaimer: The data displayed is for advisory purposes only and is not to be used for flight planning or operations.